Terminal Aerodrome Forecast
Issued by NWS Sterling, VA

Current Version | Previous Version | Text Only | Print | Product List | Glossary Off
Versions: 1 2 3 4 5 6 7 8 9 10 11 12 13 14 15 16 17 18 19 20 21 22 23

000
FTUS41 KLWX 182339
TAFIAD
TAF
KIAD 182339Z 1900/2006 VRB03KT P6SM SCT140
     FM190800 00000KT 5SM BR SCT140
     FM191200 VRB03KT P6SM SCT140
     FM191500 31004KT P6SM SCT050
     FM191800 25006KT P6SM SCT050
     FM200300 VRB03KT P6SM SCT200=

USA.gov is the U.S. government's official web portal to all federal, state and local government web resources and services.